LQTZ/TZL METAR and TAF weather

Enter ICAO airport designator
Station Type Date Time Source
LQTZ METAR 2019/12/07 17:30 UTC NOAA

LQTZ 071730Z VRB02KT 5000 BR SCT045 07/06 Q1018


Station Type Date Time Source
LQTZ Decoded METAR 2019/12/07 17:30 UTC NOAA

Tuzla, Bosnia and Herzegovina (LQTZ) 44-33N 018-42E
Dec 07, 2019 - 12:30 PM EST / 2019.12.07 1730 UTC
Wind: Variable at 2 MPH (2 KT):0
Visibility: 3 mile(s):0
Sky conditions: partly cloudy
Weather: mist
Temperature: 44 F (7 C)
Dew Point: 42 F (6 C)
Relative Humidity: 93%
Pressure (altimeter): 30.06 in. Hg (1018 hPa)
ob: LQTZ 071730Z VRB02KT 5000 BR SCT045 07/06 Q1018
cycle: 17

Station Type Date Time Source
LQTZ TAF 2019/12/07 18:06 UTC NOAA

TAF LQTZ 071700Z 0718/0818 VRB02KT 4000 BR SCT040 TX11/0813Z TN00/0806Z
TEMPO 0722/0808 0200 FG VV001
BECMG 0810/0812 7000 NSW

Example: see airport list